createdAt,value
2019-02-24T00:02:27.824Z,99182.52
2019-02-24T00:04:59.674Z,99186.06
2019-02-24T00:07:31.688Z,99185.17
2019-02-24T00:10:03.189Z,99185.55
2019-02-24T00:12:34.894Z,99189.58
2019-02-24T00:15:06.724Z,99190.01
2019-02-24T00:17:38.330Z,99193.92
2019-02-24T00:20:09.870Z,99184.52
2019-02-24T00:22:41.366Z,99191.69
2019-02-24T00:25:12.865Z,99190.42
2019-02-24T00:27:44.411Z,99186.84
2019-02-24T00:30:16.148Z,99189.00
2019-02-24T00:32:48.122Z,99179.82
2019-02-24T00:35:20.034Z,99184.96
2019-02-24T00:37:51.629Z,99180.52
2019-02-24T00:40:23.462Z,99176.73
2019-02-24T00:42:55.398Z,99185.58
2019-02-24T00:45:27.057Z,99174.90
2019-02-24T00:47:58.568Z,99173.42
2019-02-24T00:50:30.461Z,99177.42
2019-02-24T00:53:02.073Z,99171.59
2019-02-24T00:55:33.591Z,99167.31
2019-02-24T00:58:05.212Z,99171.10
2019-02-24T01:00:36.825Z,99164.63
2019-02-24T01:03:08.353Z,99168.53
2019-02-24T01:05:40.089Z,99171.75
2019-02-24T01:08:11.721Z,99171.19
2019-02-24T01:10:43.345Z,99180.77
2019-02-24T01:13:15.146Z,99173.67
2019-02-24T01:15:46.799Z,99173.63
2019-02-24T01:18:18.375Z,99176.16
2019-02-24T01:20:50.168Z,99163.72
2019-02-24T01:23:21.803Z,99175.01
2019-02-24T01:25:53.688Z,99167.57
2019-02-24T01:28:25.698Z,99176.60
2019-02-24T01:30:57.190Z,99175.23
2019-02-24T01:33:28.765Z,99170.74
2019-02-24T01:36:00.737Z,99176.92
2019-02-24T01:38:32.313Z,99164.64
2019-02-24T01:41:04.114Z,99170.61
2019-02-24T01:43:35.626Z,99165.07
2019-02-24T01:46:08.488Z,99161.17
2019-02-24T01:48:40.031Z,99157.45
2019-02-24T01:51:11.720Z,99148.67
2019-02-24T01:53:43.676Z,99151.19
2019-02-24T01:56:15.435Z,99150.72
2019-02-24T01:58:47.397Z,99150.30
2019-02-24T02:01:18.871Z,99150.42
2019-02-24T02:03:50.605Z,99147.66
2019-02-24T02:06:22.010Z,99142.78
2019-02-24T02:08:53.573Z,99139.59
2019-02-24T02:11:25.356Z,99134.47
2019-02-24T02:13:56.816Z,99131.10
2019-02-24T02:16:28.304Z,99128.38
2019-02-24T02:18:59.858Z,99126.88
2019-02-24T02:21:31.818Z,99125.09
2019-02-24T02:24:03.741Z,99119.13
2019-02-24T02:26:35.335Z,99113.06
2019-02-24T02:29:06.801Z,99112.33
2019-02-24T02:31:38.603Z,99107.69
2019-02-24T02:34:10.006Z,99117.09
2019-02-24T02:36:41.579Z,99106.55
2019-02-24T02:39:14.312Z,99116.09
2019-02-24T02:41:46.198Z,99112.30
2019-02-24T02:44:17.895Z,99112.42
2019-02-24T02:46:49.339Z,99115.60
2019-02-24T02:49:21.340Z,99120.41
2019-02-24T02:51:53.206Z,99116.41
2019-02-24T02:54:24.776Z,99128.48
2019-02-24T02:56:56.445Z,99121.22
2019-02-24T02:59:28.064Z,99117.23
2019-02-24T03:01:59.595Z,99118.61
2019-02-24T03:04:31.289Z,99120.77
2019-02-24T03:07:32.582Z,99112.30
2019-02-24T03:10:04.337Z,99100.56
2019-02-24T03:12:35.941Z,99106.11
2019-02-24T03:15:07.820Z,99109.89
2019-02-24T03:17:39.471Z,99111.93
2019-02-24T03:20:11.916Z,99111.89
2019-02-24T03:22:43.519Z,99100.31
2019-02-24T03:25:15.251Z,99096.37
2019-02-24T03:27:46.782Z,99101.33
2019-02-24T03:30:19.363Z,99103.61
2019-02-24T03:32:50.895Z,99108.05
2019-02-24T03:35:22.390Z,99099.45
2019-02-24T03:37:54.020Z,99109.19
2019-02-24T03:40:25.579Z,99104.66
2019-02-24T03:42:57.082Z,99103.80
2019-02-24T03:45:28.934Z,99106.24
2019-02-24T03:48:00.578Z,99108.48
2019-02-24T03:50:51.883Z,99106.02
2019-02-24T03:53:23.406Z,99111.36
2019-02-24T03:55:57.583Z,99108.61
2019-02-24T03:58:29.087Z,99108.60
2019-02-24T04:01:00.649Z,99107.52
2019-02-24T04:03:32.304Z,99107.02
2019-02-24T04:06:03.965Z,99101.48
2019-02-24T04:08:35.455Z,99096.91
2019-02-24T04:11:07.314Z,99099.20
2019-02-24T04:13:38.928Z,99107.56
2019-02-24T04:16:10.564Z,99112.71
2019-02-24T04:18:42.346Z,99111.95
2019-02-24T04:21:15.323Z,99105.88
2019-02-24T04:23:46.911Z,99096.27
2019-02-24T04:26:18.558Z,99113.50
2019-02-24T04:28:50.328Z,99118.69
2019-02-24T04:31:21.744Z,99112.86
2019-02-24T04:33:53.333Z,99117.53
2019-02-24T04:36:25.260Z,99113.36
2019-02-24T04:38:56.955Z,99118.56
2019-02-24T04:41:28.641Z,99120.23
2019-02-24T04:44:00.401Z,99108.71
2019-02-24T04:46:31.947Z,99122.61
2019-02-24T04:49:04.617Z,99122.21
2019-02-24T04:51:36.327Z,99126.03
2019-02-24T04:54:07.870Z,99125.38
2019-02-24T04:56:39.804Z,99129.42
2019-02-24T04:59:11.338Z,99124.13
2019-02-24T05:01:42.808Z,99123.13
2019-02-24T05:04:14.863Z,99129.92
2019-02-24T05:06:46.916Z,99124.47
2019-02-24T05:09:18.715Z,99124.45
2019-02-24T05:11:50.289Z,99129.16
2019-02-24T05:14:21.816Z,99127.11
2019-02-24T05:16:53.632Z,99132.25
2019-02-24T05:19:25.158Z,99138.23
2019-02-24T05:21:57.178Z,99146.56
2019-02-24T05:24:28.672Z,99133.73
2019-02-24T05:27:00.298Z,99131.30
2019-02-24T05:29:33.143Z,99134.29
2019-02-24T05:32:05.835Z,99133.27
2019-02-24T05:34:37.384Z,99131.08
2019-02-24T05:37:09.104Z,99128.27
2019-02-24T05:39:40.738Z,99130.63
2019-02-24T05:42:12.436Z,99145.06
2019-02-24T05:44:44.077Z,99142.66
2019-02-24T05:47:15.620Z,99148.41
2019-02-24T05:49:47.595Z,99152.31
2019-02-24T05:52:19.033Z,99150.69
2019-02-24T05:54:51.930Z,99148.36
2019-02-24T05:57:23.705Z,99152.64
2019-02-24T05:59:55.650Z,99155.29
2019-02-24T06:02:27.541Z,99154.31
2019-02-24T06:04:59.052Z,99162.25
2019-02-24T06:07:30.692Z,99162.94
2019-02-24T06:10:02.445Z,99166.28
2019-02-24T06:12:33.904Z,99167.19
2019-02-24T06:15:06.208Z,99171.22
2019-02-24T06:17:37.806Z,99172.84
2019-02-24T06:20:09.467Z,99173.45
2019-02-24T06:22:41.154Z,99174.08
2019-02-24T06:25:13.155Z,99171.10
2019-02-24T06:27:44.753Z,99175.83
2019-02-24T06:30:16.355Z,99170.48
2019-02-24T06:32:47.739Z,99177.73
2019-02-24T06:35:19.537Z,99183.07
2019-02-24T06:37:51.103Z,99187.30
2019-02-24T06:40:22.653Z,99191.77
2019-02-24T06:42:54.537Z,99198.25
2019-02-24T06:45:26.005Z,99195.02
2019-02-24T06:47:57.533Z,99197.25
2019-02-24T06:50:35.306Z,99197.16
2019-02-24T06:53:05.109Z,99197.33
2019-02-24T06:55:36.659Z,99201.52
2019-02-24T06:58:08.611Z,99196.45
2019-02-24T07:00:40.201Z,99196.71
2019-02-24T07:03:11.659Z,99197.67
2019-02-24T07:05:43.070Z,99197.29
2019-02-24T07:08:15.005Z,99205.58
2019-02-24T07:10:46.506Z,99200.60
2019-02-24T07:13:17.975Z,99201.88
2019-02-24T07:15:49.547Z,99208.79
2019-02-24T07:18:20.918Z,99196.30
2019-02-24T07:20:52.616Z,99199.41
2019-02-24T07:23:24.157Z,99189.39
2019-02-24T07:25:55.594Z,99188.45
2019-02-24T07:28:27.058Z,99192.45
2019-02-24T07:30:58.410Z,99179.42
2019-02-24T07:33:29.830Z,99177.31
2019-02-24T07:36:01.214Z,99174.08
2019-02-24T07:38:32.957Z,99172.86
2019-02-24T07:41:04.789Z,99169.92
2019-02-24T07:43:36.632Z,99164.06
2019-02-24T07:46:08.052Z,99159.72
2019-02-24T07:48:39.590Z,99161.03
2019-02-24T07:51:12.444Z,99150.14
2019-02-24T07:53:44.205Z,99147.64
2019-02-24T07:56:16.103Z,99143.65
2019-02-24T07:58:47.376Z,99141.50
2019-02-24T08:01:19.028Z,99140.77
2019-02-24T08:03:51.185Z,99139.35
2019-02-24T08:06:22.563Z,99141.01
2019-02-24T08:08:54.215Z,99129.98
2019-02-24T08:11:27.058Z,99116.50
2019-02-24T08:13:58.867Z,99111.59
2019-02-24T08:16:30.325Z,99110.89
2019-02-24T08:19:01.771Z,99112.70
2019-02-24T08:21:33.236Z,99111.46
2019-02-24T08:24:04.591Z,99111.41
2019-02-24T08:26:36.329Z,99101.17
2019-02-24T08:29:07.820Z,99108.06
2019-02-24T08:31:39.421Z,99124.97
2019-02-24T08:34:11.186Z,99127.81
2019-02-24T08:36:42.986Z,99132.19
2019-02-24T08:39:14.390Z,99126.54
2019-02-24T08:41:45.789Z,99140.45
2019-02-24T08:44:17.261Z,99141.64
2019-02-24T08:46:48.807Z,99147.83
2019-02-24T08:49:20.210Z,99128.95
2019-02-24T08:51:52.166Z,99126.67
2019-02-24T08:54:23.915Z,99107.92
2019-02-24T08:56:55.751Z,99113.36
2019-02-24T08:59:27.633Z,99114.38
2019-02-24T09:01:59.976Z,99127.13
2019-02-24T09:04:31.582Z,99118.92
2019-02-24T09:07:02.931Z,99120.38
2019-02-24T09:09:34.436Z,99129.36
2019-02-24T09:12:05.882Z,99135.03
2019-02-24T09:14:37.666Z,99150.05
2019-02-24T09:17:09.171Z,99170.20
2019-02-24T09:19:40.931Z,99142.81
2019-02-24T09:22:12.607Z,99139.94
2019-02-24T09:24:44.096Z,99123.30
2019-02-24T09:27:16.678Z,99098.62
2019-02-24T09:29:48.368Z,99109.87
2019-02-24T09:32:19.900Z,99122.65
2019-02-24T09:34:51.763Z,99111.77
2019-02-24T09:37:23.119Z,99133.95
2019-02-24T09:39:54.422Z,99130.95
2019-02-24T09:42:25.939Z,99114.83
2019-02-24T09:44:57.439Z,99127.33
2019-02-24T09:47:29.058Z,99142.45
2019-02-24T09:50:00.575Z,99145.09
2019-02-24T09:52:32.060Z,99152.95
2019-02-24T09:55:03.811Z,99142.84
2019-02-24T09:57:37.020Z,99151.83
2019-02-24T10:00:10.403Z,99149.61
2019-02-24T10:02:42.985Z,99156.28
2019-02-24T10:05:14.491Z,99150.86
2019-02-24T10:07:46.018Z,99147.51
2019-02-24T10:10:17.627Z,99154.09
2019-02-24T10:12:49.194Z,99143.92
2019-02-24T10:15:20.749Z,99136.08
2019-02-24T10:17:52.260Z,99125.64
2019-02-24T10:20:23.682Z,99127.66
2019-02-24T10:22:55.248Z,99122.55
2019-02-24T10:25:27.537Z,99132.26
2019-02-24T10:27:59.829Z,99129.20
2019-02-24T10:30:31.649Z,99125.33
2019-02-24T10:33:03.292Z,99134.47
2019-02-24T10:35:35.157Z,99135.31
2019-02-24T10:38:07.333Z,99125.39
2019-02-24T10:40:38.649Z,99141.64
2019-02-24T10:43:10.343Z,99143.02
2019-02-24T10:45:42.125Z,99143.77
2019-02-24T10:48:14.388Z,99143.11
2019-02-24T10:50:45.972Z,99144.00
2019-02-24T10:53:17.765Z,99142.39
2019-02-24T10:55:49.251Z,99140.80
2019-02-24T10:58:21.358Z,99142.08
2019-02-24T11:00:52.860Z,99134.70
2019-02-24T11:03:25.291Z,99134.06
2019-02-24T11:05:56.824Z,99135.97
2019-02-24T11:08:28.266Z,99152.72
2019-02-24T11:10:59.762Z,99147.66
2019-02-24T11:13:31.160Z,99148.80
2019-02-24T11:16:02.560Z,99149.75
2019-02-24T11:18:33.884Z,99150.79
2019-02-24T11:21:05.542Z,99143.84
2019-02-24T11:23:37.177Z,99156.14
2019-02-24T11:26:08.718Z,99170.83
2019-02-24T11:28:40.101Z,99175.00
2019-02-24T11:31:12.666Z,99157.41
2019-02-24T11:33:44.267Z,99155.17
2019-02-24T11:36:15.675Z,99150.97
2019-02-24T11:38:47.257Z,99139.19
2019-02-24T11:41:18.827Z,99139.56
2019-02-24T11:43:50.459Z,99135.19
2019-02-24T11:46:21.887Z,99127.91
2019-02-24T11:48:53.266Z,99139.45
2019-02-24T11:51:24.658Z,99135.84
2019-02-24T11:53:56.410Z,99141.72
2019-02-24T11:56:27.937Z,99128.00
2019-02-24T11:58:59.359Z,99128.89
2019-02-24T12:01:30.933Z,99127.41
2019-02-24T12:04:02.397Z,99123.03
2019-02-24T12:06:33.785Z,99119.88
2019-02-24T12:09:05.748Z,99123.14
2019-02-24T12:11:37.399Z,99127.73
2019-02-24T12:14:09.097Z,99116.11
2019-02-24T12:16:40.641Z,99109.94
2019-02-24T12:19:12.133Z,99109.00
2019-02-24T12:21:44.080Z,99102.72
2019-02-24T12:24:15.512Z,99102.04
2019-02-24T12:26:46.912Z,99098.28
2019-02-24T12:29:18.320Z,99088.36
2019-02-24T12:31:56.419Z,99090.66
2019-02-24T12:34:23.256Z,99110.96
2019-02-24T12:36:54.932Z,99090.38
2019-02-24T12:39:26.783Z,99090.25
2019-02-24T12:41:58.479Z,99088.40
2019-02-24T12:44:30.069Z,99084.05
2019-02-24T12:47:01.645Z,99088.20
2019-02-24T12:49:33.496Z,99094.81
2019-02-24T12:52:05.129Z,99087.17
2019-02-24T12:54:36.799Z,99095.83
2019-02-24T12:57:08.788Z,99090.56
2019-02-24T12:59:40.387Z,99087.83
2019-02-24T13:02:12.241Z,99087.45
2019-02-24T13:04:43.975Z,99090.25
2019-02-24T13:07:15.503Z,99086.88
2019-02-24T13:09:47.105Z,99091.42
2019-02-24T13:12:18.814Z,99084.92
2019-02-24T13:14:50.638Z,99081.20
2019-02-24T13:17:22.184Z,99085.06
2019-02-24T13:19:53.459Z,99082.14
2019-02-24T13:22:25.089Z,99085.03
2019-02-24T13:24:57.645Z,99073.39
2019-02-24T13:27:29.174Z,99075.77
2019-02-24T13:30:01.678Z,99076.17
2019-02-24T13:32:33.414Z,99070.07
2019-02-24T13:35:18.402Z,99084.33
2019-02-24T13:37:53.894Z,99070.78
2019-02-24T13:40:25.663Z,99068.61
2019-02-24T13:42:57.272Z,99073.20
2019-02-24T13:45:28.829Z,99068.08
2019-02-24T13:48:00.474Z,99061.38
2019-02-24T13:50:32.256Z,99067.91
2019-02-24T13:53:03.972Z,99064.94
2019-02-24T13:55:35.757Z,99063.55
2019-02-24T13:58:07.455Z,99056.30
2019-02-24T14:00:39.228Z,99063.06
2019-02-24T14:03:11.137Z,99052.99
2019-02-24T14:05:43.996Z,99056.29
2019-02-24T14:08:15.534Z,99049.58
2019-02-24T14:10:47.661Z,99046.58
2019-02-24T14:13:19.366Z,99055.95
2019-02-24T14:15:50.970Z,99062.76
2019-02-24T14:18:22.928Z,99062.91
2019-02-24T14:20:54.703Z,99066.06
2019-02-24T14:23:26.668Z,99067.39
2019-02-24T14:25:58.430Z,99069.36
2019-02-24T14:28:30.015Z,99060.00
2019-02-24T14:31:01.527Z,99070.15
2019-02-24T14:33:33.076Z,99067.92
2019-02-24T14:36:05.565Z,99071.04
2019-02-24T14:38:37.449Z,99068.86
2019-02-24T14:41:09.054Z,99061.43
2019-02-24T14:43:42.029Z,99068.48
2019-02-24T14:46:13.891Z,99067.42
2019-02-24T14:48:46.254Z,99064.97
2019-02-24T14:51:18.662Z,99070.27
2019-02-24T14:53:50.403Z,99069.89
2019-02-24T14:56:22.951Z,99073.13
2019-02-24T14:58:54.585Z,99079.76
2019-02-24T15:01:26.885Z,99084.87
2019-02-24T15:03:58.432Z,99095.24
2019-02-24T15:06:30.204Z,99091.42
2019-02-24T15:09:01.889Z,99094.13
2019-02-24T15:11:35.494Z,99090.62
2019-02-24T15:14:06.927Z,99102.13
2019-02-24T15:16:38.546Z,99096.81
2019-02-24T15:19:10.098Z,99099.20
2019-02-24T15:21:41.839Z,99102.16
2019-02-24T15:24:13.654Z,99094.98
2019-02-24T15:26:45.082Z,99105.78
2019-02-24T15:29:16.733Z,99103.97
2019-02-24T15:31:48.599Z,99106.14
2019-02-24T15:34:20.171Z,99096.98
2019-02-24T15:36:52.176Z,99095.06
2019-02-24T15:39:23.748Z,99097.98
2019-02-24T15:41:55.412Z,99099.34
2019-02-24T15:44:27.360Z,99100.14
2019-02-24T15:46:58.970Z,99091.77
2019-02-24T15:49:30.552Z,99093.03
2019-02-24T15:52:09.677Z,99088.71
2019-02-24T15:54:35.711Z,99096.50
2019-02-24T15:57:07.467Z,99098.39
2019-02-24T15:59:39.408Z,99092.70
2019-02-24T16:02:12.067Z,99094.33
2019-02-24T16:04:43.921Z,99093.58
2019-02-24T16:07:15.677Z,99095.13
2019-02-24T16:09:47.209Z,99094.56
2019-02-24T16:12:18.972Z,99094.70
2019-02-24T16:14:51.154Z,99086.19
2019-02-24T16:17:22.993Z,99092.13
2019-02-24T16:19:54.514Z,99088.17
2019-02-24T16:22:26.002Z,99090.59
2019-02-24T16:24:57.486Z,99098.44
2019-02-24T16:27:28.989Z,99097.92
2019-02-24T16:30:00.641Z,99090.66
2019-02-24T16:32:32.286Z,99095.88
2019-02-24T16:35:03.903Z,99105.20
2019-02-24T16:37:35.406Z,99107.52
2019-02-24T16:40:10.594Z,99104.26
2019-02-24T16:42:43.041Z,99104.34
2019-02-24T16:45:15.090Z,99107.79
2019-02-24T16:47:46.773Z,99113.98
2019-02-24T16:50:18.611Z,99110.92
2019-02-24T16:52:50.105Z,99110.23
2019-02-24T16:55:21.563Z,99121.95
2019-02-24T16:57:53.144Z,99118.66
2019-02-24T17:00:24.714Z,99125.84
2019-02-24T17:02:56.332Z,99123.80
2019-02-24T17:05:28.244Z,99127.43
2019-02-24T17:08:00.001Z,99125.23
2019-02-24T17:10:32.202Z,99115.04
2019-02-24T17:13:03.549Z,99125.13
2019-02-24T17:15:35.055Z,99135.56
2019-02-24T17:18:06.718Z,99138.66
2019-02-24T17:20:38.200Z,99131.75
2019-02-24T17:23:09.692Z,99128.75
2019-02-24T17:25:41.380Z,99138.66
2019-02-24T17:28:13.303Z,99148.84
2019-02-24T17:30:44.778Z,99154.44
2019-02-24T17:33:16.182Z,99158.50
2019-02-24T17:35:48.204Z,99156.70
2019-02-24T17:38:20.089Z,99163.09
2019-02-24T17:40:52.033Z,99147.78
2019-02-24T17:43:24.227Z,99163.16
2019-02-24T17:45:56.013Z,99170.81
2019-02-24T17:48:27.780Z,99172.25
2019-02-24T17:50:59.418Z,99171.59
2019-02-24T17:53:30.944Z,99174.17
2019-02-24T17:56:02.739Z,99168.66
2019-02-24T17:58:34.223Z,99172.06
2019-02-24T18:01:06.357Z,99170.94
2019-02-24T18:03:39.702Z,99164.08
2019-02-24T18:06:11.684Z,99171.99
2019-02-24T18:08:43.660Z,99171.13
2019-02-24T18:11:15.283Z,99172.98
2019-02-24T18:13:46.984Z,99174.82
2019-02-24T18:16:18.649Z,99174.53
2019-02-24T18:18:50.297Z,99170.64
2019-02-24T18:21:22.008Z,99171.19
2019-02-24T18:23:53.738Z,99172.88
2019-02-24T18:26:25.621Z,99161.20
2019-02-24T18:28:57.981Z,99169.13
2019-02-24T18:31:29.697Z,99176.11
2019-02-24T18:34:02.921Z,99168.03
2019-02-24T18:36:34.510Z,99173.00
2019-02-24T18:39:07.014Z,99165.66
2019-02-24T18:41:39.459Z,99171.66
2019-02-24T18:44:11.213Z,99172.56
2019-02-24T18:46:43.510Z,99169.59
2019-02-24T18:49:15.462Z,99179.91
2019-02-24T18:51:46.718Z,99181.24
2019-02-24T18:54:18.059Z,99180.96
2019-02-24T18:56:49.579Z,99177.36
2019-02-24T18:59:21.527Z,99174.27
2019-02-24T19:01:53.254Z,99174.62
2019-02-24T19:04:24.978Z,99175.20
2019-02-24T19:06:56.269Z,99178.99
2019-02-24T19:09:27.764Z,99185.84
2019-02-24T19:11:59.101Z,99178.95
2019-02-24T19:14:30.737Z,99165.00
2019-02-24T19:17:02.235Z,99164.53
2019-02-24T19:19:33.596Z,99166.75
2019-02-24T19:22:04.994Z,99164.73
2019-02-24T19:24:37.342Z,99165.38
2019-02-24T19:27:08.851Z,99168.96
2019-02-24T19:29:40.045Z,99165.05
2019-02-24T19:32:11.341Z,99177.72
2019-02-24T19:34:42.660Z,99186.94
2019-02-24T19:37:13.829Z,99186.08
2019-02-24T19:39:45.152Z,99189.52
2019-02-24T19:42:16.430Z,99191.50
2019-02-24T19:44:47.767Z,99191.59
2019-02-24T19:47:20.666Z,99197.62
2019-02-24T19:49:55.160Z,99201.81
2019-02-24T19:52:26.307Z,99197.03
2019-02-24T19:54:57.547Z,99195.48
2019-02-24T19:57:29.126Z,99203.32
2019-02-24T20:00:00.661Z,99199.30
2019-02-24T20:02:32.371Z,99202.14
2019-02-24T20:05:03.727Z,99211.13
2019-02-24T20:07:35.130Z,99204.50
2019-02-24T20:10:10.198Z,99202.14
2019-02-24T20:12:41.885Z,99209.36
2019-02-24T20:15:14.329Z,99210.16
2019-02-24T20:17:46.004Z,99218.53
2019-02-24T20:20:17.796Z,99216.40
2019-02-24T20:22:49.264Z,99213.98
2019-02-24T20:25:20.503Z,99216.34
2019-02-24T20:27:51.853Z,99210.28
2019-02-24T20:30:25.988Z,99207.00
2019-02-24T20:32:57.640Z,99206.02
2019-02-24T20:35:28.879Z,99207.05
2019-02-24T20:38:00.216Z,99205.79
2019-02-24T20:40:31.638Z,99215.05
2019-02-24T20:43:02.847Z,99209.55
2019-02-24T20:45:35.891Z,99209.06
2019-02-24T20:48:07.221Z,99207.08
2019-02-24T20:50:38.461Z,99203.44
2019-02-24T20:53:09.845Z,99205.98
2019-02-24T20:55:41.334Z,99201.98
2019-02-24T20:58:12.613Z,99206.13
2019-02-24T21:00:44.230Z,99203.09
2019-02-24T21:03:16.429Z,99196.78
2019-02-24T21:05:47.686Z,99198.87
2019-02-24T21:08:18.997Z,99209.58
2019-02-24T21:10:50.385Z,99199.96
2019-02-24T21:13:21.660Z,99204.16
2019-02-24T21:15:52.978Z,99214.34
2019-02-24T21:18:24.296Z,99197.23
2019-02-24T21:20:55.546Z,99213.95
2019-02-24T21:23:26.820Z,99203.16
2019-02-24T21:25:58.175Z,99213.52
2019-02-24T21:28:29.525Z,99211.77
2019-02-24T21:31:01.117Z,99213.88
2019-02-24T21:33:32.492Z,99214.38
2019-02-24T21:36:04.035Z,99216.83
2019-02-24T21:38:35.175Z,99219.84
2019-02-24T21:41:06.528Z,99214.23
2019-02-24T21:43:39.036Z,99213.02
2019-02-24T21:46:10.431Z,99217.65
2019-02-24T21:48:41.659Z,99217.14
2019-02-24T21:51:13.596Z,99222.11
2019-02-24T21:53:45.762Z,99219.66
2019-02-24T21:56:17.102Z,99213.52
2019-02-24T21:58:48.423Z,99208.88
2019-02-24T22:01:19.707Z,99216.33
2019-02-24T22:03:51.886Z,99209.04
2019-02-24T22:06:23.489Z,99208.08
2019-02-24T22:08:54.644Z,99209.31
2019-02-24T22:11:25.933Z,99221.63
2019-02-24T22:13:57.226Z,99220.51
2019-02-24T22:16:28.723Z,99212.38
2019-02-24T22:18:59.931Z,99216.66
2019-02-24T22:21:31.215Z,99204.08
2019-02-24T22:24:02.569Z,99201.70
2019-02-24T22:26:33.848Z,99225.84
2019-02-24T22:29:05.475Z,99224.09
2019-02-24T22:31:36.904Z,99222.44
2019-02-24T22:34:08.122Z,99225.34
2019-02-24T22:36:39.381Z,99222.95
2019-02-24T22:39:10.632Z,99218.00
2019-02-24T22:41:43.585Z,99210.77
2019-02-24T22:44:15.215Z,99218.61
2019-02-24T22:46:46.534Z,99224.05
2019-02-24T22:49:18.035Z,99222.47
2019-02-24T22:51:50.593Z,99221.67
2019-02-24T22:54:21.863Z,99217.13
2019-02-24T22:56:53.078Z,99213.59
2019-02-24T22:59:24.490Z,99217.66
2019-02-24T23:01:56.221Z,99219.72
2019-02-24T23:04:27.977Z,99203.50
2019-02-24T23:06:59.322Z,99207.30
2019-02-24T23:09:30.624Z,99202.96
2019-02-24T23:12:02.146Z,99204.50
2019-02-24T23:14:33.722Z,99196.97
2019-02-24T23:17:05.040Z,99192.73
2019-02-24T23:19:36.377Z,99182.78
2019-02-24T23:22:08.036Z,99173.90
2019-02-24T23:24:39.283Z,99175.34
2019-02-24T23:27:11.001Z,99180.59
2019-02-24T23:29:43.588Z,99182.66
2019-02-24T23:32:15.093Z,99182.30
2019-02-24T23:34:46.266Z,99185.74
2019-02-24T23:37:17.500Z,99189.48
2019-02-24T23:39:48.997Z,99197.99
2019-02-24T23:42:20.309Z,99189.87
2019-02-24T23:44:51.668Z,99192.41
2019-02-24T23:47:22.940Z,99189.36
2019-02-24T23:49:54.187Z,99187.61
2019-02-24T23:52:25.397Z,99183.28
2019-02-24T23:54:56.843Z,99190.66
2019-02-24T23:57:28.162Z,99185.83
2019-02-24T23:59:59.463Z,99191.89
